Time;durP1;ratioP1;P1;durP2;ratioP2;P2;SDS_P1;SDS_P2;PMS_P1;PMS_P2;Temp;Humidity;BMP_temperature;BMP_pressure;BME280_temperature;BME280_humidity;BME280_pressure;Samples;Min_cycle;Max_cycle;Signal;HPM_P1;HPM_P2
2022/04/01 00:01:48;;;;;;;;;1.67;1.67;;;;;8.59;43.18;100261.44;4976248;28;45568;-85
2022/04/01 00:04:14;;;;;;;;;2.00;2.00;;;;;8.50;42.70;100237.06;5022220;28;45364;-85
2022/04/01 00:06:39;;;;;;;;;2.00;1.00;;;;;8.29;43.21;100194.56;5058846;28;45414;-85
2022/04/01 00:09:05;;;;;;;;;1.00;1.00;;;;;8.70;43.03;100271.59;5059020;28;45496;-85
2022/04/01 00:11:30;;;;;;;;;0.67;0.67;;;;;8.74;43.21;100269.69;5040369;28;48032;-85
2022/04/01 00:13:56;;;;;;;;;0.33;0.33;;;;;7.86;42.95;100126.50;5040412;28;45584;-85
2022/04/01 00:16:21;;;;;;;;;0.67;0.67;;;;;7.91;43.30;100149.25;5058877;28;45714;-85
2022/04/01 00:18:46;;;;;;;;;0.67;0.67;;;;;8.71;42.96;100267.13;5046734;28;45671;-85
2022/04/01 00:21:12;;;;;;;;;1.00;1.00;;;;;7.76;42.90;100112.78;4956287;28;46292;-85
2022/04/01 00:23:37;;;;;;;;;0.33;0.33;;;;;8.36;43.11;100219.91;4939466;28;46025;-85
2022/04/01 00:26:02;;;;;;;;;2.00;0.67;;;;;8.17;42.89;100184.44;4939240;28;45357;-85
2022/04/01 00:28:28;;;;;;;;;2.00;0.67;;;;;8.43;43.45;100234.69;4939871;28;45343;-85
2022/04/01 00:30:54;;;;;;;;;1.00;1.00;;;;;7.54;43.45;100096.91;4956593;28;45419;-85
2022/04/01 00:33:20;;;;;;;;;2.33;1.00;;;;;8.58;43.07;100272.97;4956434;28;45359;-85
2022/04/01 00:35:46;;;;;;;;;0.00;0.00;;;;;8.16;43.03;100199.50;4973101;28;45370;-85
2022/04/01 00:38:12;;;;;;;;;0.00;0.00;;;;;8.19;43.18;100206.47;4958751;28;45486;-85
2022/04/01 00:40:37;;;;;;;;;4.33;1.67;;;;;8.55;43.29;100278.44;4958299;28;47025;-85
2022/04/01 00:43:03;;;;;;;;;0.67;0.67;;;;;8.36;43.47;100229.69;4954535;28;45409;-85
2022/04/01 00:45:28;;;;;;;;;0.67;0.67;;;;;8.12;43.02;100216.47;4971503;28;45428;-85
2022/04/01 00:48:01;;;;;;;;;1.00;1.00;;;;;8.44;43.17;100272.72;4962568;28;45367;-85
2022/04/01 00:50:31;;;;;;;;;1.00;0.00;;;;;8.10;43.80;100212.16;4970620;28;47687;-85
2022/04/01 00:52:57;;;;;;;;;1.33;1.33;;;;;7.80;43.88;100159.47;4968757;28;45517;-85
2022/04/01 00:55:23;;;;;;;;;10.00;5.67;;;;;8.13;43.57;100199.66;4956087;28;45379;-85
2022/04/01 00:57:48;;;;;;;;;2.33;1.00;;;;;7.99;43.50;100172.84;4956601;28;45538;-85
2022/04/01 01:00:17;;;;;;;;;2.33;1.00;;;;;7.93;43.37;100151.84;4955937;28;45510;-85
2022/04/01 01:02:43;;;;;;;;;0.67;0.67;;;;;8.04;43.41;100169.03;4939025;28;45426;-85
2022/04/01 01:05:08;;;;;;;;;2.00;1.00;;;;;8.02;43.87;100165.59;4973393;28;45385;-86
2022/04/01 01:07:36;;;;;;;;;1.00;1.00;;;;;8.49;44.10;100230.03;4974771;28;45371;-85
2022/04/01 01:10:03;;;;;;;;;0.00;0.00;;;;;7.83;44.01;100136.31;4974974;28;46637;-86
2022/04/01 01:12:29;;;;;;;;;4.00;1.00;;;;;8.45;44.55;100237.25;4957926;28;45425;-84
2022/04/01 01:14:54;;;;;;;;;0.00;0.00;;;;;7.70;44.13;100098.00;4975751;28;45245;-85
2022/04/01 01:17:20;;;;;;;;;0.00;0.00;;;;;8.31;44.44;100191.81;4950373;28;45657;-85
2022/04/01 01:19:45;;;;;;;;;2.00;2.00;;;;;7.75;44.93;100092.47;4938481;28;46570;-85
2022/04/01 01:22:13;;;;;;;;;0.33;0.33;;;;;8.50;44.74;100215.81;4935182;28;45670;-85
2022/04/01 01:24:41;;;;;;;;;0.00;0.00;;;;;8.42;45.41;100214.34;4936547;28;45475;-85
2022/04/01 01:27:08;;;;;;;;;1.00;1.00;;;;;8.41;45.15;100209.13;4936916;28;45467;-85
2022/04/01 01:29:39;;;;;;;;;0.00;0.00;;;;;8.09;45.41;100144.97;4936435;28;46449;-85
2022/04/01 01:32:09;;;;;;;;;1.00;0.00;;;;;7.77;45.40;100087.97;4935087;28;45409;-85
2022/04/01 01:34:35;;;;;;;;;0.00;0.00;;;;;8.40;45.61;100192.31;4936150;28;45251;-85
2022/04/01 01:37:02;;;;;;;;;1.00;1.00;;;;;8.01;45.43;100128.53;4936635;28;45641;-85
2022/04/01 01:39:28;;;;;;;;;1.00;1.00;;;;;7.98;46.17;100134.81;4935835;28;45413;-85
2022/04/01 01:41:55;;;;;;;;;1.67;0.00;;;;;8.22;46.94;100169.19;4936316;28;45501;-85
2022/04/01 01:44:22;;;;;;;;;0.00;0.00;;;;;8.32;48.10;100181.13;4936316;28;45436;-85
2022/04/01 01:46:49;;;;;;;;;0.33;0.33;;;;;8.14;47.93;100150.06;4964194;28;45451;-85
2022/04/01 01:49:14;;;;;;;;;2.00;1.00;;;;;7.49;48.36;100045.84;4974685;28;45620;-85
2022/04/01 01:57:10;;;;;;;;;0.00;0.00;;;;;8.21;47.37;100151.53;4960648;28;45447;-85
2022/04/01 01:59:35;;;;;;;;;0.67;0.67;;;;;7.15;48.35;99981.00;4935652;28;45509;-85
2022/04/01 02:02:05;;;;;;;;;1.00;1.00;;;;;7.28;48.08;99997.25;4934700;28;46027;-85
2022/04/01 02:04:31;;;;;;;;;1.00;1.00;;;;;7.68;49.04;100072.44;4947816;28;45462;-85
2022/04/01 02:06:56;;;;;;;;;1.00;0.67;;;;;7.34;49.23;100011.09;4955551;28;45827;-85
2022/04/01 02:09:22;;;;;;;;;0.33;0.33;;;;;7.86;49.28;100110.59;4953828;28;46996;-85
2022/04/01 02:11:47;;;;;;;;;0.00;0.00;;;;;7.86;49.99;100132.66;4955095;28;45720;-85
2022/04/01 02:14:13;;;;;;;;;1.00;1.00;;;;;7.65;50.22;100094.66;4955061;28;45397;-85
2022/04/01 02:16:44;;;;;;;;;0.33;0.33;;;;;7.67;51.04;100090.16;4962481;28;45303;-85
2022/04/01 02:19:20;;;;;;;;;5.67;0.67;;;;;7.14;51.75;100006.66;4973047;28;47367;-85
2022/04/01 02:21:47;;;;;;;;;0.67;0.67;;;;;7.12;51.52;100002.34;4972781;28;45405;-85
2022/04/01 02:24:13;;;;;;;;;2.00;0.00;;;;;7.66;52.01;100079.63;4967270;28;45250;-85
2022/04/01 02:26:39;;;;;;;;;1.33;1.33;;;;;7.61;52.84;100085.13;4977788;28;45525;-85
2022/04/01 02:29:05;;;;;;;;;1.00;1.00;;;;;6.63;53.19;99919.59;4976424;28;47247;-85
2022/04/01 02:31:32;;;;;;;;;3.00;1.00;;;;;7.05;53.60;100016.78;4976196;28;45594;-85
2022/04/01 02:33:58;;;;;;;;;2.67;1.00;;;;;7.76;53.85;100126.03;4976298;28;45559;-86
2022/04/01 02:36:23;;;;;;;;;0.00;0.00;;;;;7.64;54.02;100089.44;4977723;28;45646;-85
2022/04/01 02:38:49;;;;;;;;;1.00;0.00;;;;;7.18;53.93;100028.56;4977395;28;46721;-86
2022/04/01 02:41:15;;;;;;;;;1.00;1.00;;;;;7.17;54.32;100054.22;4977504;28;45425;-85
2022/04/01 02:43:41;;;;;;;;;1.00;0.00;;;;;6.84;55.60;99998.16;4956549;28;45741;-86
2022/04/01 02:46:10;;;;;;;;;0.33;0.33;;;;;7.12;55.43;100042.94;4957290;28;45525;-85
2022/04/01 02:48:36;;;;;;;;;1.00;1.00;;;;;7.35;55.88;100087.06;4957523;28;45660;-85
2022/04/01 02:51:02;;;;;;;;;2.33;0.00;;;;;7.55;56.29;100123.34;4957769;28;45331;-84
2022/04/01 02:53:27;;;;;;;;;0.00;0.00;;;;;7.08;56.36;100038.69;4972641;28;45322;-85
2022/04/01 02:55:53;;;;;;;;;1.00;1.00;;;;;7.03;56.53;100039.81;4972883;28;45573;-85
2022/04/01 02:58:18;;;;;;;;;1.67;1.33;;;;;6.83;55.99;100007.03;4957736;28;45368;-85
2022/04/01 03:00:45;;;;;;;;;1.00;1.00;;;;;7.57;56.78;100123.28;4957592;28;45613;-85
2022/04/01 03:03:10;;;;;;;;;1.33;0.67;;;;;7.15;56.85;100058.72;4966606;28;45365;-85
2022/04/01 03:05:37;;;;;;;;;0.00;0.00;;;;;7.45;56.90;100099.94;4970176;28;45379;-85
2022/04/01 03:08:07;;;;;;;;;0.00;0.00;;;;;7.14;57.45;100043.75;4937971;28;45473;-85
2022/04/01 03:10:34;;;;;;;;;3.33;2.00;;;;;7.36;56.49;100087.91;4937828;28;45322;-85
2022/04/01 03:13:00;;;;;;;;;2.00;0.00;;;;;7.02;57.64;100030.97;4953161;28;45359;-85
2022/04/01 03:15:28;;;;;;;;;1.00;1.00;;;;;7.00;56.49;100027.56;4938663;28;45491;-85
2022/04/01 03:17:55;;;;;;;;;1.00;1.00;;;;;6.52;57.74;99947.34;4954835;28;45715;-85
2022/04/01 03:20:20;;;;;;;;;1.00;1.00;;;;;6.74;57.36;99970.31;4972418;27;45543;-85
2022/04/01 03:22:45;;;;;;;;;1.00;1.00;;;;;7.46;57.94;100105.16;4982934;28;45500;-85
2022/04/01 03:25:15;;;;;;;;;1.00;1.00;;;;;7.43;57.07;100088.53;4977313;28;45245;-85
2022/04/01 03:27:40;;;;;;;;;0.00;0.00;;;;;6.87;58.13;99989.22;4975588;28;48122;-85
2022/04/01 03:30:10;;;;;;;;;1.00;0.67;;;;;7.40;57.43;100086.88;4975687;28;45381;-86
2022/04/01 03:32:40;;;;;;;;;1.00;1.00;;;;;6.66;57.70;99975.94;4992076;27;45391;-85
2022/04/01 03:35:18;;;;;;;;;0.00;0.00;;;;;7.40;57.95;100086.88;4940410;28;45562;-85
2022/04/01 03:37:45;;;;;;;;;0.00;0.00;;;;;7.38;58.07;100086.94;4936329;28;47360;-85
2022/04/01 03:40:14;;;;;;;;;0.00;0.00;;;;;6.75;57.96;99996.75;4936691;28;45369;-85
2022/04/01 03:42:41;;;;;;;;;0.00;0.00;;;;;6.39;58.02;99937.31;4937823;28;45433;-85
2022/04/01 03:45:06;;;;;;;;;0.00;0.00;;;;;6.45;57.77;99939.72;4936692;28;45351;-85
2022/04/01 03:47:58;;;;;;;;;0.33;0.33;;;;;7.19;57.34;100057.66;4943528;28;47864;-85
2022/04/01 03:50:29;;;;;;;;;0.00;0.00;;;;;7.03;57.54;100031.88;4957357;28;45298;-85
2022/04/01 03:53:08;;;;;;;;;0.00;0.00;;;;;6.80;57.41;99991.25;4956998;28;45564;-85
2022/04/01 03:55:36;;;;;;;;;1.00;1.00;;;;;6.92;56.68;100014.59;4972410;28;45592;-85
2022/04/01 03:58:06;;;;;;;;;0.33;0.33;;;;;7.11;57.71;100025.31;4971803;28;48157;-85
2022/04/01 04:00:32;;;;;;;;;1.33;1.00;;;;;7.39;57.79;100088.66;4960660;28;45421;-85
2022/04/01 04:02:59;;;;;;;;;0.00;0.00;;;;;7.26;57.93;100057.41;4976345;28;45280;-85
2022/04/01 04:05:27;;;;;;;;;0.00;0.00;;;;;6.92;58.24;99995.19;4961839;28;45418;-85
2022/04/01 04:07:53;;;;;;;;;0.33;0.00;;;;;6.65;57.73;99965.38;4956550;28;45432;-85
2022/04/01 04:10:19;;;;;;;;;1.00;1.00;;;;;6.93;57.71;99996.91;4956660;28;45460;-85
2022/04/01 04:12:46;;;;;;;;;0.00;0.00;;;;;6.73;57.38;99972.09;4955599;28;45363;-85
2022/04/01 04:15:12;;;;;;;;;0.00;0.00;;;;;6.52;57.66;99920.88;4955908;28;45345;-86
2022/04/01 04:17:37;;;;;;;;;0.67;0.67;;;;;7.37;57.78;100079.03;4956751;28;46216;-85
2022/04/01 04:20:02;;;;;;;;;1.33;1.00;;;;;7.36;57.64;100072.03;4971530;28;45406;-85
2022/04/01 04:22:48;;;;;;;;;0.67;0.67;;;;;7.37;57.74;100079.91;4990979;28;45258;-85
2022/04/01 04:25:21;;;;;;;;;0.00;0.00;;;;;7.08;57.97;100037.84;4971874;28;45504;-85
2022/04/01 04:27:58;;;;;;;;;0.00;0.00;;;;;6.93;57.80;100015.44;4964723;28;47104;-85
2022/04/01 04:30:35;;;;;;;;;0.67;0.67;;;;;7.34;57.35;100072.06;4957358;28;45412;-85
2022/04/01 04:33:09;;;;;;;;;1.00;1.00;;;;;7.30;57.48;100067.81;4990921;27;45522;-85
2022/04/01 04:35:37;;;;;;;;;1.00;1.00;;;;;7.16;57.50;100055.16;4951653;28;45664;-86
2022/04/01 04:38:03;;;;;;;;;0.67;0.00;;;;;7.35;57.95;100091.47;4938367;28;45540;-85
2022/04/01 04:40:30;;;;;;;;;0.00;0.00;;;;;6.92;57.61;100016.38;4956044;28;45358;-85
2022/04/01 04:42:57;;;;;;;;;2.67;1.00;;;;;6.47;57.34;99929.94;4970913;28;45342;-85
2022/04/01 04:45:25;;;;;;;;;0.00;0.00;;;;;6.77;57.40;99970.22;4955356;28;45427;-85
2022/04/01 04:47:51;;;;;;;;;0.67;0.67;;;;;6.86;57.31;99988.38;4954748;28;46995;-85
2022/04/01 04:50:18;;;;;;;;;0.67;0.67;;;;;7.52;56.95;100089.00;4956345;28;45559;-85
2022/04/01 04:52:55;;;;;;;;;1.00;1.00;;;;;7.15;57.15;100040.16;4939720;28;45457;-86
2022/04/01 04:55:22;;;;;;;;;1.00;1.00;;;;;7.24;57.04;100054.84;4941943;28;45486;-85
2022/04/01 04:57:50;;;;;;;;;1.67;0.67;;;;;7.15;56.77;100040.16;4974256;28;47534;-85
2022/04/01 05:00:21;;;;;;;;;0.00;0.00;;;;;6.95;56.36;99998.59;4974111;28;45569;-85
2022/04/01 05:03:08;;;;;;;;;1.00;1.00;;;;;7.22;56.47;100038.13;4990956;28;45581;-86
2022/04/01 05:05:44;;;;;;;;;1.00;1.00;;;;;7.15;55.88;100052.56;4968602;28;45622;-85
2022/04/01 05:08:31;;;;;;;;;1.33;1.33;;;;;7.56;54.85;100118.91;4947580;28;45586;-85
2022/04/01 05:11:16;;;;;;;;;1.00;1.00;;;;;7.39;55.32;100077.19;4944078;28;45351;-85
2022/04/01 05:13:58;;;;;;;;;1.00;1.00;;;;;7.63;55.32;100112.41;4971044;28;45346;-85
2022/04/01 05:16:53;;;;;;;;;1.67;1.00;;;;;7.69;55.10;100119.28;4961977;28;45628;-85
2022/04/01 05:19:26;;;;;;;;;0.00;0.00;;;;;7.49;55.01;100077.66;4974994;28;46341;-85
2022/04/01 05:22:10;;;;;;;;;0.33;0.33;;;;;7.76;55.86;100126.03;4968099;28;45347;-85
2022/04/01 05:24:49;;;;;;;;;1.00;1.00;;;;;7.77;55.10;100126.00;4977808;28;45385;-85
2022/04/01 05:27:28;;;;;;;;;1.00;1.00;;;;;7.79;54.83;100132.06;4976589;28;45412;-86
2022/04/01 05:30:16;;;;;;;;;1.00;1.00;;;;;7.24;55.17;100051.31;4978958;28;47618;-86
2022/04/01 05:32:59;;;;;;;;;2.67;1.67;;;;;6.92;54.98;99987.25;4973846;28;45247;-85
2022/04/01 05:35:29;;;;;;;;;1.00;1.00;;;;;7.83;55.21;100127.50;4961654;28;45886;-85
2022/04/01 05:37:55;;;;;;;;;0.33;0.33;;;;;7.81;54.74;100124.91;4976928;28;45429;-85
2022/04/01 05:40:22;;;;;;;;;1.00;1.00;;;;;6.83;55.60;99964.66;4989727;28;47240;-86
2022/04/01 05:42:48;;;;;;;;;2.00;2.00;;;;;7.52;55.03;100070.44;4979351;28;45454;-87
2022/04/01 05:45:16;;;;;;;;;2.00;2.00;;;;;7.78;55.38;100124.19;4973201;28;45489;-85
2022/04/01 05:47:44;;;;;;;;;3.00;3.00;;;;;6.92;55.57;99979.31;4947834;28;45395;-86
2022/04/01 05:50:09;;;;;;;;;3.33;3.00;;;;;7.49;55.12;100075.91;4971015;28;45616;-86
2022/04/01 05:52:37;;;;;;;;;1.67;1.00;;;;;7.07;54.33;100001.66;4941334;28;45487;-87
2022/04/01 05:55:03;;;;;;;;;1.67;1.67;;;;;7.71;55.01;100112.97;4941410;28;45541;-86
2022/04/01 05:57:29;;;;;;;;;3.00;3.00;;;;;7.94;55.29;100146.50;4941141;28;45424;-86
2022/04/01 05:59:54;;;;;;;;;2.00;2.00;;;;;7.31;54.84;100055.44;4941184;28;47038;-85
2022/04/01 06:02:38;;;;;;;;;2.00;2.00;;;;;7.62;54.80;100110.69;4941646;28;45301;-84
2022/04/01 06:05:19;;;;;;;;;3.33;2.00;;;;;7.93;55.12;100167.78;4985690;27;45650;-85
2022/04/01 06:08:02;;;;;;;;;1.67;1.67;;;;;7.93;55.02;100170.44;4978311;28;45590;-85
2022/04/01 06:10:58;;;;;;;;;4.00;4.00;;;;;7.93;55.64;100163.31;4990956;27;48262;-85
2022/04/01 06:14:01;;;;;;;;;3.00;3.00;;;;;7.94;55.35;100167.72;4976174;28;45551;-86
2022/04/01 06:16:41;;;;;;;;;3.00;3.00;;;;;7.89;54.89;100167.06;4964539;28;45508;-86
2022/04/01 06:19:31;;;;;;;;;3.67;3.67;;;;;7.57;55.16;100128.59;4976722;28;45320;-86
2022/04/01 06:22:04;;;;;;;;;3.00;3.00;;;;;7.93;55.51;100184.56;4959868;28;46585;-87
2022/04/01 06:24:54;;;;;;;;;2.00;2.00;;;;;7.36;55.80;100098.53;4966476;28;45354;-87
2022/04/01 06:27:46;;;;;;;;;5.00;4.00;;;;;7.12;56.16;100074.75;4985735;28;45247;-87
2022/04/01 06:30:14;;;;;;;;;5.67;3.67;;;;;6.47;55.80;99974.94;4997055;28;45366;-87
2022/04/01 06:32:52;;;;;;;;;3.33;3.00;;;;;7.84;55.54;100200.84;4992285;27;45431;-87
2022/04/01 06:35:19;;;;;;;;;3.00;3.00;;;;;7.86;56.60;100201.66;4959624;28;45473;-87
2022/04/01 06:38:02;;;;;;;;;5.67;5.00;;;;;7.05;56.30;100061.81;4969219;28;45454;-87
2022/04/01 06:40:36;;;;;;;;;4.00;4.00;;;;;7.08;55.93;100075.78;4977723;28;45517;-87
2022/04/01 06:43:01;;;;;;;;;5.00;5.00;;;;;6.84;56.20;100045.84;4964889;28;45520;-88
2022/04/01 06:45:27;;;;;;;;;5.00;5.00;;;;;7.21;56.01;100093.84;4972905;28;45308;-87
2022/04/01 06:47:52;;;;;;;;;5.00;4.00;;;;;7.61;56.60;100168.19;4958184;28;45723;-88
2022/04/01 06:50:18;;;;;;;;;4.00;4.00;;;;;7.60;56.58;100171.75;4974102;28;45522;-87
2022/04/01 06:52:44;;;;;;;;;5.00;5.00;;;;;7.86;56.67;100214.91;4971838;28;47512;-86
2022/04/01 06:55:10;;;;;;;;;6.67;6.67;;;;;7.17;57.36;100095.75;4947891;28;45224;-85
2022/04/01 06:57:36;;;;;;;;;6.00;4.67;;;;;7.66;56.50;100178.63;4979021;28;45323;-86
2022/04/01 07:00:05;;;;;;;;;5.00;5.00;;;;;7.95;56.73;100234.91;4990730;27;45584;-85
2022/04/01 07:02:31;;;;;;;;;45.75;38.50;;;;;7.27;57.00;100125.41;4964998;28;46491;-87
2022/04/01 07:04:56;;;;;;;;;5.33;5.33;;;;;7.29;56.26;100113.81;4978468;28;46175;-87
2022/04/01 07:07:22;;;;;;;;;8.00;5.00;;;;;7.78;57.42;100201.13;4978694;28;45429;-86
2022/04/01 07:09:47;;;;;;;;;7.33;7.33;;;;;7.59;56.81;100179.78;4946448;28;45629;-89
2022/04/01 07:12:13;;;;;;;;;6.00;5.00;;;;;7.74;56.35;100207.47;4944388;28;47050;-87
2022/04/01 07:14:38;;;;;;;;;4.00;4.00;;;;;7.46;56.36;100162.63;5002320;28;45386;-88
2022/04/01 07:17:04;;;;;;;;;9.00;6.00;;;;;7.93;56.62;100244.72;4973286;28;45453;-86
2022/04/01 07:19:29;;;;;;;;;7.00;7.00;;;;;7.78;57.47;100230.31;4961244;28;45569;-88
2022/04/01 07:21:54;;;;;;;;;35.50;31.75;;;;;7.30;56.90;100139.38;4968785;28;47143;-86
2022/04/01 07:24:20;;;;;;;;;8.67;8.00;;;;;7.65;56.62;100206.03;4967850;28;45373;-87
2022/04/01 07:26:46;;;;;;;;;8.00;7.00;;;;;7.31;56.81;100148.22;4966076;28;45330;-88
2022/04/01 07:29:12;;;;;;;;;15.75;15.00;;;;;8.00;56.91;100260.31;4964924;28;45478;-87
2022/04/01 07:34:33;;;;;;;;;6.00;6.00;;;;;7.43;57.13;100171.59;4962827;28;45496;-89
2022/04/01 07:36:59;;;;;;;;;6.67;6.00;;;;;7.55;57.08;100196.75;4964829;28;45394;-90
2022/04/01 07:39:25;;;;;;;;;7.00;6.00;;;;;7.27;57.04;100160.72;4945627;28;45765;-91
2022/04/01 07:41:50;;;;;;;;;7.33;7.00;;;;;7.79;57.03;100237.31;4971022;28;47979;-89
2022/04/01 07:44:16;;;;;;;;;6.00;6.00;;;;;7.16;57.48;100141.72;4956215;28;45810;-89
2022/04/01 07:46:41;;;;;;;;;8.33;7.00;;;;;7.39;57.06;100177.94;4961557;28;45384;-89
2022/04/01 07:49:06;;;;;;;;;5.33;5.33;;;;;7.13;56.82;100144.50;4968127;28;45495;-89
2022/04/01 07:51:32;;;;;;;;;10.00;7.33;;;;;7.34;56.76;100174.59;4962153;28;48129;-89
2022/04/01 07:53:58;;;;;;;;;6.33;6.33;;;;;7.60;57.29;100229.25;4942457;28;45850;-90
2022/04/01 07:56:30;;;;;;;;;6.67;6.00;;;;;7.07;57.63;100145.63;4963346;28;45729;-91
2022/04/01 07:58:55;;;;;;;;;5.33;5.00;;;;;7.36;56.82;100191.31;4967730;28;45531;-89
2022/04/01 08:01:22;;;;;;;;;8.33;7.00;;;;;7.51;57.42;100217.19;4948566;28;46845;-89
2022/04/01 08:03:48;;;;;;;;;6.00;4.33;;;;;7.52;57.03;100220.75;4966335;28;45391;-89
2022/04/01 08:06:13;;;;;;;;;8.00;6.67;;;;;7.67;57.35;100256.38;4967694;28;45521;-89
2022/04/01 08:08:39;;;;;;;;;9.00;8.00;;;;;7.48;56.99;100211.16;4963215;28;45389;-89
2022/04/01 08:11:06;;;;;;;;;5.00;5.00;;;;;7.01;56.75;100144.97;4981521;27;46280;-89
2022/04/01 08:13:32;;;;;;;;;7.00;6.00;;;;;7.17;57.11;100183.22;4963991;28;45460;-91
2022/04/01 08:15:58;;;;;;;;;7.67;6.00;;;;;6.81;57.43;100128.06;4964870;28;45506;-89
2022/04/01 08:18:23;;;;;;;;;9.00;7.00;;;;;7.66;57.38;100286.50;4980606;27;45438;-89
2022/04/01 08:20:49;;;;;;;;;8.67;6.33;;;;;6.84;57.52;100127.97;4965484;28;46961;-88
2022/04/01 08:23:14;;;;;;;;;7.00;5.67;;;;;7.61;57.11;100282.22;4969575;28;45545;-89
2022/04/01 08:25:40;;;;;;;;;7.00;7.00;;;;;6.95;57.11;100159.31;4963820;28;45441;-90
2022/04/01 08:28:05;;;;;;;;;7.00;7.00;;;;;7.11;57.21;100199.34;4993474;28;45507;-88
2022/04/01 08:30:32;;;;;;;;;7.33;7.33;;;;;7.45;57.41;100261.69;4968614;28;45492;-90
2022/04/01 08:32:57;;;;;;;;;6.33;5.00;;;;;7.97;56.72;100334.75;4966060;28;45427;-88
2022/04/01 08:35:23;;;;;;;;;6.67;6.67;;;;;7.26;57.17;100225.28;4954769;28;45568;-90
2022/04/01 08:37:49;;;;;;;;;6.33;6.33;;;;;6.71;57.08;100148.72;4951500;28;45474;-90
2022/04/01 08:40:15;;;;;;;;;7.00;7.00;;;;;7.98;56.71;100373.66;4968566;28;45474;-90
2022/04/01 08:42:47;;;;;;;;;8.00;7.00;;;;;7.05;57.41;100205.75;4962232;28;45564;-88
2022/04/01 08:45:16;;;;;;;;;5.33;5.33;;;;;7.67;57.43;100312.94;4966015;28;45302;-89
2022/04/01 08:47:42;;;;;;;;;7.67;7.00;;;;;6.88;56.32;100200.19;4945381;28;45438;-88
2022/04/01 08:50:08;;;;;;;;;7.33;6.33;;;;;6.72;56.73;100157.56;4954974;28;47363;-93
2022/04/01 08:52:34;;;;;;;;;7.33;7.00;;;;;6.73;57.69;100170.72;4956892;28;45265;-89
2022/04/01 08:55:08;;;;;;;;;6.33;6.33;;;;;7.50;57.29;100308.28;4959881;28;45394;-88
2022/04/01 08:57:43;;;;;;;;;8.00;8.00;;;;;7.24;57.21;100247.47;4968792;28;45251;-87
2022/04/01 09:00:14;;;;;;;;;8.00;8.00;;;;;7.89;56.85;100384.63;4963197;28;45406;-87
2022/04/01 09:02:40;;;;;;;;;7.00;7.00;;;;;7.38;56.84;100306.13;4985660;27;46124;-88
2022/04/01 09:05:07;;;;;;;;;8.00;7.00;;;;;7.26;56.18;100294.19;4963124;28;45501;-87
2022/04/01 09:07:34;;;;;;;;;17.00;13.33;;;;;7.67;57.46;100391.66;4963153;28;45642;-85
2022/04/01 09:10:01;;;;;;;;;30.25;27.00;;;;;7.58;57.11;100403.47;4970907;28;45736;-87
2022/04/01 09:12:28;;;;;;;;;10.33;8.00;;;;;7.13;58.32;100325.56;4983777;27;45621;-84
2022/04/01 09:14:55;;;;;;;;;13.67;12.33;;;;;6.54;57.28;100218.19;4951028;28;45464;-84
2022/04/01 09:17:20;;;;;;;;;7.33;7.00;;;;;7.24;57.44;100334.94;4950914;28;45404;-85
2022/04/01 09:19:46;;;;;;;;;6.67;6.00;;;;;7.30;56.43;100324.06;4967833;28;45349;-89
2022/04/01 09:22:25;;;;;;;;;7.67;7.67;;;;;7.66;57.04;100424.44;4966905;28;45471;-87
2022/04/01 09:24:58;;;;;;;;;6.67;6.67;;;;;7.57;56.57;100409.72;4959758;28;45633;-87
2022/04/01 09:27:42;;;;;;;;;13.33;9.33;;;;;7.63;58.76;100412.13;4972837;28;45588;-88
2022/04/01 09:30:12;;;;;;;;;9.33;8.33;;;;;7.68;57.37;100415.50;4981499;27;48047;-86
2022/04/01 09:33:01;;;;;;;;;8.00;8.00;;;;;7.72;57.09;100400.31;4978539;28;45494;-86
2022/04/01 09:35:29;;;;;;;;;8.33;8.33;;;;;7.98;57.09;100417.88;4977191;28;45433;-86
2022/04/01 09:37:58;;;;;;;;;9.67;7.67;;;;;8.03;55.84;100437.19;4992862;27;45350;-86
2022/04/01 09:40:25;;;;;;;;;7.00;7.00;;;;;7.05;55.74;100268.50;4969060;28;46473;-86
2022/04/01 09:42:56;;;;;;;;;13.00;12.00;;;;;8.01;55.96;100434.56;4972796;28;45893;-85
2022/04/01 09:45:30;;;;;;;;;13.00;9.00;;;;;7.43;56.46;100349.22;4960864;28;45500;-86
2022/04/01 09:48:09;;;;;;;;;11.33;7.67;;;;;8.04;56.43;100447.72;4966546;28;45438;-86
2022/04/01 09:50:39;;;;;;;;;10.00;8.00;;;;;8.07;56.51;100453.84;4983044;27;47658;-87
2022/04/01 09:53:16;;;;;;;;;12.33;11.67;;;;;8.07;55.87;100438.78;4952966;28;45580;-87
2022/04/01 09:55:44;;;;;;;;;7.00;7.00;;;;;8.09;55.29;100452.84;4976525;28;45454;-87
2022/04/01 09:58:09;;;;;;;;;6.00;5.67;;;;;8.11;55.93;100453.66;4984593;28;45541;-87
2022/04/01 10:00:37;;;;;;;;;6.33;5.33;;;;;7.42;55.84;100343.97;4967597;28;45568;-86
2022/04/01 10:03:05;;;;;;;;;8.67;8.67;;;;;8.13;56.09;100466.88;4967453;28;45752;-86
2022/04/01 10:05:31;;;;;;;;;9.00;8.00;;;;;7.66;56.16;100389.94;4948970;28;45770;-85
2022/04/01 10:07:57;;;;;;;;;9.00;7.33;;;;;8.13;56.15;100472.19;4973062;28;45405;-87
2022/04/01 10:10:24;;;;;;;;;6.33;6.33;;;;;7.60;55.47;100394.53;4982545;27;47633;-85
2022/04/01 10:12:53;;;;;;;;;6.00;6.00;;;;;7.71;56.32;100410.06;4948301;28;45517;-85
2022/04/01 10:15:19;;;;;;;;;10.00;8.67;;;;;8.11;55.49;100469.59;4960762;28;45405;-85
2022/04/01 10:17:46;;;;;;;;;7.00;7.00;;;;;7.89;55.67;100442.13;4963189;28;45380;-86
2022/04/01 10:20:13;;;;;;;;;11.67;9.00;;;;;7.51;56.00;100368.34;4951992;28;47822;-85
2022/04/01 10:22:40;;;;;;;;;9.00;6.67;;;;;7.39;55.57;100350.25;4958035;28;45809;-86
2022/04/01 10:25:15;;;;;;;;;6.33;6.33;;;;;8.21;54.87;100470.09;4971514;28;45414;-85
2022/04/01 10:27:52;;;;;;;;;9.67;8.67;;;;;7.99;54.80;100446.16;4964294;28;45584;-85
2022/04/01 10:30:20;;;;;;;;;8.00;8.00;;;;;7.54;54.39;100372.69;4978062;27;45964;-85
2022/04/01 10:32:47;;;;;;;;;7.67;7.67;;;;;8.18;54.82;100475.53;4962624;28;45693;-84
2022/04/01 10:35:31;;;;;;;;;8.67;8.67;;;;;7.74;54.08;100415.25;4987097;27;45620;-83
2022/04/01 10:38:06;;;;;;;;;8.67;7.00;;;;;8.21;54.82;100494.00;4970206;28;45565;-85
2022/04/01 10:40:46;;;;;;;;;11.67;9.00;;;;;8.24;54.14;100504.47;4972917;28;45820;-83
2022/04/01 10:43:26;;;;;;;;;12.00;12.00;;;;;8.21;54.73;100510.78;4971441;28;45903;-84
2022/04/01 10:46:21;;;;;;;;;7.00;7.00;;;;;8.21;54.60;100500.16;4966978;28;45499;-84
2022/04/01 10:52:05;;;;;;;;;10.33;10.00;;;;;8.00;53.80;100482.38;4970251;28;45698;-83
2022/04/01 10:54:30;;;;;;;;;7.67;7.67;;;;;8.19;54.51;100511.75;4968309;28;45414;-85
2022/04/01 10:57:05;;;;;;;;;10.67;10.33;;;;;7.27;54.79;100356.88;4967208;28;45397;-85
2022/04/01 10:59:42;;;;;;;;;7.33;7.33;;;;;7.74;54.70;100439.13;4971898;28;45584;-87
2022/04/01 11:02:10;;;;;;;;;31.75;30.75;;;;;7.60;54.78;100398.97;4978074;28;47749;-86
2022/04/01 11:04:54;;;;;;;;;9.00;9.00;;;;;7.47;54.50;100406.53;4989275;27;45576;-89
2022/04/01 11:07:22;;;;;;;;;12.33;10.00;;;;;8.31;54.09;100524.59;4957226;28;45535;-90
2022/04/01 11:09:50;;;;;;;;;11.00;11.00;;;;;8.18;54.35;100491.47;4963883;28;45625;-88
2022/04/01 11:12:16;;;;;;;;;10.00;8.67;;;;;7.66;53.97;100409.38;4984560;28;48007;-88
2022/04/01 11:14:53;;;;;;;;;11.33;10.00;;;;;8.35;54.41;100534.16;4970160;28;45497;-88
2022/04/01 11:17:34;;;;;;;;;9.00;9.00;;;;;8.28;54.09;100518.53;4980831;28;45458;-88
2022/04/01 11:20:05;;;;;;;;;11.00;11.00;;;;;7.39;53.35;100379.41;4966414;28;45787;-87
2022/04/01 11:23:27;;;;;;;;;9.33;9.33;;;;;8.18;54.39;100537.44;4994413;27;45477;-88
2022/04/01 11:25:54;;;;;;;;;8.00;6.67;;;;;8.32;53.77;100536.94;4976558;28;45504;-85
2022/04/01 11:28:21;;;;;;;;;10.00;9.00;;;;;7.74;54.36;100444.41;4983486;28;45377;-86
2022/04/01 11:30:49;;;;;;;;;9.67;8.00;;;;;8.42;53.70;100542.78;4981130;28;46125;-85
2022/04/01 11:33:25;;;;;;;;;9.33;9.33;;;;;8.34;53.92;100520.97;4981559;28;47460;-93
2022/04/01 11:35:53;;;;;;;;;11.67;9.67;;;;;8.45;53.45;100550.63;4980851;28;45710;-89
2022/04/01 11:38:23;;;;;;;;;10.33;10.33;;;;;7.47;53.63;100403.88;4983887;28;45388;-89
2022/04/01 11:40:56;;;;;;;;;12.33;11.00;;;;;8.22;53.87;100509.00;4988364;27;45445;-89
2022/04/01 11:43:24;;;;;;;;;13.00;11.00;;;;;8.09;53.60;100483.84;4977541;28;47358;-89
2022/04/01 11:45:54;;;;;;;;;19.33;15.67;;;;;7.95;54.21;100479.03;4978586;28;45499;-90
2022/04/01 11:48:35;;;;;;;;;16.67;14.33;;;;;8.44;54.23;100560.41;5008669;27;45311;-91
2022/04/01 11:51:00;;;;;;;;;21.00;17.33;;;;;8.45;54.10;100555.94;4986892;28;45404;-93
2022/04/01 11:53:30;;;;;;;;;14.67;11.67;;;;;8.44;54.79;100562.19;4978108;28;47331;-88
2022/04/01 11:55:56;;;;;;;;;9.67;8.00;;;;;7.84;54.53;100479.44;4979605;28;45572;-86